Time;durP1;ratioP1;P1;durP2;ratioP2;P2;SDS_P1;SDS_P2;PMS_P1;PMS_P2;Temp;Humidity;BMP_temperature;BMP_pressure;BME280_temperature;BME280_humidity;BME280_pressure;Samples;Min_cycle;Max_cycle;Signal;HPM_P1;HPM_P2
2022/05/29 00:02:10;;;;;;;3.70;1.97;;;;;;;13.35;56.27;97845.28;5076746;28;20236;-70
2022/05/29 00:04:39;;;;;;;3.97;2.00;;;;;;;13.29;55.53;97846.22;5076549;28;20212;-70
2022/05/29 00:07:07;;;;;;;2.17;1.87;;;;;;;13.32;55.60;97847.59;5076179;28;20205;-70
2022/05/29 00:09:41;;;;;;;2.47;1.50;;;;;;;13.33;57.13;97841.19;5076401;28;20212;-70
2022/05/29 00:12:09;;;;;;;3.30;1.87;;;;;;;13.38;55.53;97836.75;5076443;28;20208;-70
2022/05/29 00:14:37;;;;;;;3.17;1.73;;;;;;;13.32;56.18;97840.41;5076443;28;20214;-70
2022/05/29 00:17:05;;;;;;;2.67;1.83;;;;;;;13.29;57.36;97845.41;5076397;28;20228;-70
2022/05/29 00:19:31;;;;;;;3.27;1.70;;;;;;;13.44;56.74;97841.16;5076236;28;20228;-70
2022/05/29 00:21:58;;;;;;;3.93;1.63;;;;;;;13.40;55.87;97840.00;5076179;28;20230;-70
2022/05/29 00:24:24;;;;;;;4.70;1.73;;;;;;;13.39;56.32;97838.38;5076224;28;20203;-70
2022/05/29 00:26:51;;;;;;;3.47;1.70;;;;;;;13.34;56.12;97838.28;5076251;28;20218;-70
2022/05/29 00:29:17;;;;;;;2.43;1.57;;;;;;;13.38;56.17;97838.63;5075458;28;20227;-70
2022/05/29 00:31:44;;;;;;;3.30;1.93;;;;;;;13.31;56.26;97837.97;5076126;28;20210;-70
2022/05/29 00:34:10;;;;;;;2.70;1.73;;;;;;;13.31;57.37;97830.78;5076557;28;20294;-70
2022/05/29 00:36:39;;;;;;;3.97;2.20;;;;;;;13.43;56.67;97836.84;5076054;28;20202;-70
2022/05/29 00:39:10;;;;;;;5.10;1.80;;;;;;;13.32;57.99;97824.38;5075595;28;20595;-70
2022/05/29 00:41:38;;;;;;;3.53;2.20;;;;;;;13.28;57.57;97823.25;5075948;28;20212;-70
2022/05/29 00:44:16;;;;;;;5.27;2.03;;;;;;;13.29;57.11;97819.50;5075906;28;20572;-70
2022/05/29 00:46:47;;;;;;;2.93;1.70;;;;;;;13.43;56.28;97820.81;5076247;28;20573;-70
2022/05/29 00:49:16;;;;;;;2.67;1.53;;;;;;;13.28;57.28;97833.09;5075438;28;20341;-70
2022/05/29 00:51:47;;;;;;;3.53;1.80;;;;;;;13.36;57.29;97825.53;5075822;28;20559;-70
2022/05/29 00:54:15;;;;;;;3.57;1.47;;;;;;;13.32;57.46;97823.56;5075782;28;20187;-70
2022/05/29 00:56:41;;;;;;;6.43;1.90;;;;;;;13.26;57.48;97821.88;5075639;28;20563;-70
2022/05/29 00:59:13;;;;;;;5.40;1.90;;;;;;;13.30;56.73;97821.13;5075375;28;20571;-70
2022/05/29 01:01:40;;;;;;;3.60;1.70;;;;;;;13.14;58.39;97816.59;5075497;28;20205;-70
2022/05/29 01:04:07;;;;;;;2.20;1.77;;;;;;;13.28;56.58;97812.56;5075249;28;20208;-70
2022/05/29 01:06:34;;;;;;;3.27;1.70;;;;;;;13.34;56.08;97808.13;5074695;28;20207;-70
2022/05/29 01:09:01;;;;;;;3.33;1.53;;;;;;;13.29;57.28;97813.38;5075375;28;20286;-70
2022/05/29 01:11:39;;;;;;;3.43;2.00;;;;;;;13.13;57.94;97808.81;5057701;28;20214;-70
2022/05/29 01:14:17;;;;;;;2.40;1.70;;;;;;;13.25;57.29;97812.25;5075393;28;20192;-70
2022/05/29 01:16:56;;;;;;;3.80;1.80;;;;;;;13.13;57.76;97803.50;5075325;28;20641;-70
2022/05/29 01:19:38;;;;;;;2.80;1.60;;;;;;;13.32;56.50;97805.69;5058045;28;20316;-70
2022/05/29 01:22:23;;;;;;;3.33;1.83;;;;;;;13.25;57.71;97799.69;5057394;28;20210;-70
2022/05/29 01:25:27;;;;;;;3.53;1.50;;;;;;;13.10;58.22;97799.44;5074798;28;20196;-70
2022/05/29 01:28:28;;;;;;;2.40;1.63;;;;;;;12.93;58.13;97795.09;5075058;28;20237;-70
2022/05/29 01:31:05;;;;;;;3.13;1.33;;;;;;;12.94;58.04;97799.38;5060346;28;20200;-70
2022/05/29 01:33:47;;;;;;;2.97;1.50;;;;;;;13.11;57.17;97800.25;5074969;28;20185;-70
2022/05/29 01:36:18;;;;;;;3.17;1.60;;;;;;;12.98;57.01;97796.00;5074911;28;20192;-70
2022/05/29 01:38:52;;;;;;;3.90;1.70;;;;;;;13.15;56.72;97796.84;5074644;28;20225;-70
2022/05/29 01:41:33;;;;;;;2.70;1.60;;;;;;;12.90;56.47;97782.22;5074684;28;20219;-70
2022/05/29 01:44:16;;;;;;;2.60;1.70;;;;;;;12.90;57.65;97771.56;5057401;28;20197;-70
2022/05/29 01:46:46;;;;;;;3.57;1.63;;;;;;;13.08;56.57;97777.53;5074713;28;20196;-70
2022/05/29 01:49:34;;;;;;;3.47;1.60;;;;;;;12.96;57.56;97782.09;5074293;28;20246;-70
2022/05/29 01:52:06;;;;;;;3.43;1.57;;;;;;;12.77;58.21;97767.34;5074234;28;20629;-70
2022/05/29 01:55:00;;;;;;;2.70;1.60;;;;;;;12.81;57.89;97765.00;5074493;28;20199;-70
2022/05/29 01:57:33;;;;;;;3.17;1.90;;;;;;;12.88;56.66;97763.78;5073932;28;20208;-70
2022/05/29 02:00:22;;;;;;;3.73;1.40;;;;;;;12.71;55.98;97764.81;5074332;28;20200;-70
2022/05/29 02:03:14;;;;;;;4.27;1.53;;;;;;;12.82;55.46;97753.28;5073892;28;20677;-70
2022/05/29 02:05:56;;;;;;;3.53;1.53;;;;;;;12.81;55.43;97746.31;5059297;28;20206;-70
2022/05/29 02:08:48;;;;;;;2.00;1.40;;;;;;;12.92;54.84;97746.25;5074060;28;20228;-70
2022/05/29 02:11:22;;;;;;;3.47;1.43;;;;;;;12.85;54.62;97758.94;5056549;28;20200;-70
2022/05/29 02:14:06;;;;;;;3.33;1.50;;;;;;;12.76;55.05;97741.72;5056387;28;20199;-70
2022/05/29 02:16:53;;;;;;;3.53;1.40;;;;;;;12.57;56.07;97734.94;5073951;28;20269;-70
2022/05/29 02:19:29;;;;;;;2.57;1.40;;;;;;;12.56;53.84;97735.19;5073633;28;20228;-70
2022/05/29 02:22:00;;;;;;;3.93;1.50;;;;;;;12.65;54.77;97739.91;5073913;28;20572;-70
2022/05/29 02:24:33;;;;;;;4.10;1.43;;;;;;;12.56;55.45;97737.84;5073909;28;20190;-70
2022/05/29 02:27:06;;;;;;;4.00;1.43;;;;;;;12.77;54.69;97745.19;5073747;28;20280;-70
2022/05/29 02:29:32;;;;;;;3.53;1.40;;;;;;;12.64;55.90;97738.28;5073718;28;20224;-70
2022/05/29 02:32:17;;;;;;;3.00;1.47;;;;;;;12.48;57.29;97735.59;5073795;28;20205;-70
2022/05/29 02:35:20;;;;;;;3.00;1.50;;;;;;;12.41;57.68;97741.06;5073774;28;20211;-70
2022/05/29 02:38:10;;;;;;;3.03;1.60;;;;;;;12.35;57.46;97736.66;5058675;28;20593;-70
2022/05/29 02:40:58;;;;;;;3.60;1.50;;;;;;;12.23;58.79;97730.59;5056484;28;20542;-70
2022/05/29 02:43:47;;;;;;;3.07;1.20;;;;;;;12.36;59.66;97732.16;5073747;28;20189;-70
2022/05/29 02:46:25;;;;;;;3.20;1.80;;;;;;;12.28;60.00;97725.34;5060488;28;20216;-70
2022/05/29 02:49:00;;;;;;;1.83;1.47;;;;;;;12.24;60.04;97724.19;5055942;28;20228;-70
2022/05/29 02:51:40;;;;;;;2.70;1.63;;;;;;;12.14;60.56;97721.34;5073562;28;20215;-70
2022/05/29 02:54:11;;;;;;;4.43;1.40;;;;;;;12.27;60.32;97722.91;5073464;28;20305;-70
2022/05/29 02:56:38;;;;;;;2.60;1.47;;;;;;;12.31;60.05;97711.56;5055771;28;20204;-69
2022/05/29 02:59:04;;;;;;;2.23;1.60;;;;;;;11.92;60.31;97715.03;5073413;28;20251;-70
2022/05/29 03:01:45;;;;;;;2.37;1.70;;;;;;;11.93;60.98;97716.63;5073322;28;20224;-70
2022/05/29 03:04:37;;;;;;;2.77;1.60;;;;;;;12.15;60.47;97720.28;5055476;28;20549;-70
2022/05/29 03:07:19;;;;;;;4.10;1.60;;;;;;;12.07;60.37;97712.66;5073796;28;20195;-70
2022/05/29 03:10:11;;;;;;;1.50;1.40;;;;;;;12.29;58.62;97718.19;5072977;28;20632;-70
2022/05/29 03:12:55;;;;;;;3.63;1.60;;;;;;;12.28;57.68;97708.53;5073227;28;20211;-70
2022/05/29 03:15:58;;;;;;;6.97;1.83;;;;;;;12.18;58.29;97711.84;5072892;28;20242;-70
2022/05/29 03:18:51;;;;;;;4.43;1.60;;;;;;;12.12;59.79;97704.75;5021819;28;20231;-70
2022/05/29 03:21:28;;;;;;;2.70;1.50;;;;;;;12.00;59.61;97705.84;5073083;28;20215;-70
2022/05/29 03:24:10;;;;;;;3.43;1.40;;;;;;;12.02;60.75;97701.91;5073203;28;20192;-70
2022/05/29 03:27:04;;;;;;;5.10;1.73;;;;;;;12.14;58.77;97708.03;5073168;28;20204;-70
2022/05/29 03:29:38;;;;;;;3.17;1.43;;;;;;;12.16;57.06;97702.47;5075116;28;20224;-70
2022/05/29 03:32:07;;;;;;;2.70;1.60;;;;;;;12.03;58.09;97710.72;5077185;28;20180;-70
2022/05/29 03:34:34;;;;;;;6.50;1.70;;;;;;;11.94;58.42;97704.13;5059560;28;20205;-69
2022/05/29 03:37:00;;;;;;;4.27;1.40;;;;;;;12.02;59.50;97701.13;5077037;28;20212;-70
2022/05/29 03:39:27;;;;;;;4.03;1.67;;;;;;;11.98;57.99;97710.63;5076827;28;20228;-70
2022/05/29 03:41:55;;;;;;;4.03;1.60;;;;;;;12.01;57.44;97704.81;5076862;28;20230;-70
2022/05/29 03:44:24;;;;;;;4.67;1.77;;;;;;;12.03;57.29;97708.06;5076767;28;20215;-70
2022/05/29 03:46:51;;;;;;;3.23;1.30;;;;;;;11.92;58.83;97706.22;5076542;28;20683;-70
2022/05/29 03:49:20;;;;;;;2.43;1.40;;;;;;;12.07;58.08;97699.34;5076444;28;20612;-70
2022/05/29 03:51:47;;;;;;;5.67;1.70;;;;;;;11.83;59.64;97699.63;5076400;28;20675;-70
2022/05/29 03:54:14;;;;;;;4.00;1.47;;;;;;;11.90;59.27;97703.81;5076712;28;20211;-70
2022/05/29 03:56:41;;;;;;;3.40;1.67;;;;;;;11.75;59.88;97708.81;5076775;28;20200;-70
2022/05/29 03:59:08;;;;;;;4.53;1.70;;;;;;;11.76;59.65;97702.44;5076711;28;20220;-70
2022/05/29 04:01:35;;;;;;;2.50;1.20;;;;;;;11.89;60.54;97696.84;5076784;28;20683;-70
2022/05/29 04:04:02;;;;;;;2.47;1.30;;;;;;;11.52;60.78;97692.84;5076233;28;20223;-70
2022/05/29 04:06:30;;;;;;;4.20;1.57;;;;;;;11.41;60.74;97693.66;5076211;28;20204;-70
2022/05/29 04:14:27;;;;;;;3.30;1.40;;;;;;;11.57;61.52;97698.25;5076411;28;20168;-69
2022/05/29 04:16:54;;;;;;;4.00;1.53;;;;;;;11.18;65.86;97689.16;5075980;28;20217;-69
2022/05/29 04:19:20;;;;;;;3.73;1.60;;;;;;;10.90;68.01;97689.00;5075876;28;20236;-69
2022/05/29 04:21:49;;;;;;;3.30;1.80;;;;;;;10.45;71.43;97690.53;5075769;28;20232;-68
2022/05/29 04:24:19;;;;;;;5.93;2.50;;;;;;;10.36;78.09;97696.41;5075878;28;20531;-68
2022/05/29 04:26:46;;;;;;;4.90;2.40;;;;;;;10.03;82.94;97702.13;5077071;28;20295;-68
2022/05/29 04:29:12;;;;;;;5.10;2.47;;;;;;;10.12;78.32;97705.31;5076176;28;20221;-68
2022/05/29 04:32:59;;;;;;;4.97;2.27;;;;;;;10.16;79.34;97711.78;5076079;28;20203;-68
2022/05/29 04:34:24;;;;;;;4.67;2.03;;;;;;;10.14;82.96;97704.06;5075658;28;20204;-68
2022/05/29 04:36:50;;;;;;;5.43;2.43;;;;;;;10.13;84.06;97707.75;5075734;28;20560;-69
2022/05/29 04:39:17;;;;;;;4.20;2.33;;;;;;;10.09;86.87;97706.56;5075764;28;20225;-68
2022/05/29 04:41:43;;;;;;;4.13;2.33;;;;;;;10.09;84.57;97697.81;5074813;28;20248;-68
2022/05/29 04:44:09;;;;;;;4.50;2.43;;;;;;;10.02;88.19;97711.13;5075894;28;20211;-68
2022/05/29 04:46:36;;;;;;;5.13;2.40;;;;;;;10.06;87.15;97708.88;5075822;28;20201;-68
2022/05/29 04:49:02;;;;;;;3.07;2.03;;;;;;;10.15;86.81;97712.84;5075277;28;20247;-68
2022/05/29 04:51:29;;;;;;;3.93;1.90;;;;;;;10.22;83.19;97721.50;5075755;28;20205;-68
2022/05/29 04:53:55;;;;;;;2.87;2.17;;;;;;;10.17;87.46;97708.91;5076271;28;20204;-68
2022/05/29 04:56:22;;;;;;;2.00;1.80;;;;;;;10.22;83.55;97708.22;5075701;28;20208;-68
2022/05/29 04:58:48;;;;;;;4.33;2.30;;;;;;;10.28;83.23;97710.81;5075662;28;20227;-68
2022/05/29 05:01:14;;;;;;;4.33;2.37;;;;;;;10.33;80.92;97712.81;5075353;28;20204;-68
2022/05/29 05:03:41;;;;;;;3.43;1.93;;;;;;;10.23;84.59;97713.31;5075202;28;20695;-68
2022/05/29 05:06:07;;;;;;;5.10;2.20;;;;;;;10.21;81.53;97699.47;5075567;28;20231;-68
2022/05/29 05:08:33;;;;;;;6.43;2.40;;;;;;;10.29;82.37;97698.34;5075300;28;20226;-68
2022/05/29 05:11:00;;;;;;;2.90;2.27;;;;;;;10.40;84.86;97697.56;5075355;28;20201;-68
2022/05/29 05:13:27;;;;;;;2.93;2.00;;;;;;;10.38;82.23;97697.81;5075304;28;20197;-68
2022/05/29 05:16:01;;;;;;;3.73;2.20;;;;;;;10.41;83.04;97704.53;5075286;28;20253;-68
2022/05/29 05:18:28;;;;;;;6.70;2.63;;;;;;;10.43;82.33;97702.44;5075128;28;20228;-68
2022/05/29 05:20:54;;;;;;;4.13;2.10;;;;;;;10.30;83.87;97692.81;5075140;28;20209;-68
2022/05/29 05:23:21;;;;;;;5.30;2.13;;;;;;;10.36;82.17;97693.75;5074816;28;20224;-68
2022/05/29 05:25:47;;;;;;;4.50;2.13;;;;;;;10.46;78.81;97694.03;5074710;28;20208;-68
2022/05/29 05:28:14;;;;;;;3.47;1.90;;;;;;;10.34;78.94;97699.28;5074689;28;20225;-68
2022/05/29 05:30:40;;;;;;;9.87;2.27;;;;;;;10.49;77.59;97701.50;5074599;28;20675;-68
2022/05/29 05:33:06;;;;;;;6.23;2.23;;;;;;;10.39;80.87;97694.13;5074890;28;20571;-68
2022/05/29 05:35:33;;;;;;;5.70;2.40;;;;;;;10.53;83.43;97697.38;5074441;28;20216;-68
2022/05/29 05:37:59;;;;;;;3.93;2.20;;;;;;;10.71;79.53;97699.97;5074340;28;20228;-68
2022/05/29 05:40:25;;;;;;;4.90;1.80;;;;;;;10.52;78.16;97698.41;5074249;28;20204;-68
2022/05/29 05:42:52;;;;;;;3.80;2.10;;;;;;;10.44;82.23;97704.88;5074286;28;20232;-68
2022/05/29 05:45:18;;;;;;;3.33;1.90;;;;;;;10.41;80.56;97696.53;5074364;28;20215;-69
2022/05/29 05:47:44;;;;;;;3.90;1.77;;;;;;;10.53;80.39;97702.69;5074788;28;20232;-68
2022/05/29 05:50:12;;;;;;;3.53;2.10;;;;;;;10.66;77.50;97703.31;5074597;28;20208;-69
2022/05/29 05:52:39;;;;;;;5.57;2.30;;;;;;;10.74;79.42;97704.84;5074289;28;20292;-68
2022/05/29 05:55:10;;;;;;;6.07;1.87;;;;;;;10.72;78.83;97706.88;5074531;28;20207;-68
2022/05/29 05:57:36;;;;;;;3.87;1.53;;;;;;;10.95;76.37;97705.09;5074504;28;20225;-68
2022/05/29 06:00:05;;;;;;;2.20;1.70;;;;;;;10.65;78.66;97707.03;5074393;28;20207;-68
2022/05/29 06:02:31;;;;;;;3.07;2.10;;;;;;;10.83;78.36;97714.09;5073988;28;20217;-68
2022/05/29 06:04:57;;;;;;;4.33;1.90;;;;;;;11.13;77.87;97704.19;5073982;28;20738;-68
2022/05/29 06:07:24;;;;;;;2.40;1.63;;;;;;;11.33;74.44;97699.34;5073855;28;20567;-68
2022/05/29 06:09:50;;;;;;;4.67;2.07;;;;;;;11.60;73.20;97695.19;5074211;28;20208;-67
2022/05/29 06:12:19;;;;;;;4.33;1.90;;;;;;;11.77;75.66;97688.09;5074209;28;20200;-68
2022/05/29 06:14:46;;;;;;;2.93;1.93;;;;;;;12.22;73.62;97690.84;5074138;28;20208;-68
2022/05/29 06:17:13;;;;;;;5.27;1.97;;;;;;;12.20;69.08;97698.28;5073696;28;20231;-68
2022/05/29 06:19:39;;;;;;;3.63;1.47;;;;;;;12.36;67.91;97697.50;5073936;28;20204;-68
2022/05/29 06:22:07;;;;;;;2.10;1.60;;;;;;;12.40;69.30;97704.81;5073805;28;20698;-68
2022/05/29 06:24:34;;;;;;;2.37;1.37;;;;;;;12.34;64.68;97704.94;5074076;28;20201;-68
2022/05/29 06:27:00;;;;;;;3.90;1.63;;;;;;;12.52;66.11;97702.06;5074081;28;20384;-68
2022/05/29 06:29:27;;;;;;;4.83;1.50;;;;;;;12.37;65.43;97704.44;5073937;28;20225;-68
2022/05/29 06:31:54;;;;;;;4.83;1.73;;;;;;;12.41;64.73;97706.41;5073631;28;20720;-68
2022/05/29 06:34:21;;;;;;;4.23;1.60;;;;;;;12.47;64.38;97713.44;5073505;28;20216;-68
2022/05/29 06:36:48;;;;;;;4.07;1.57;;;;;;;12.36;65.81;97711.66;5073380;28;20209;-68
2022/05/29 06:39:14;;;;;;;2.80;1.60;;;;;;;12.08;64.61;97708.94;5073516;28;20571;-69
2022/05/29 06:41:40;;;;;;;4.60;1.57;;;;;;;11.89;64.00;97710.16;5073413;28;20702;-68
2022/05/29 06:44:07;;;;;;;4.00;1.60;;;;;;;11.90;68.48;97706.47;5073281;28;20699;-68
2022/05/29 06:46:35;;;;;;;3.40;1.60;;;;;;;12.09;64.27;97707.91;5073695;28;20204;-68
2022/05/29 06:49:01;;;;;;;3.70;1.10;;;;;;;12.18;63.73;97703.84;5073317;28;20239;-68
2022/05/29 06:51:28;;;;;;;2.53;1.50;;;;;;;12.58;63.59;97709.94;5073400;28;20693;-68
2022/05/29 06:53:56;;;;;;;4.60;1.30;;;;;;;12.45;62.51;97712.88;5073635;28;20197;-69
2022/05/29 06:56:23;;;;;;;1.80;1.10;;;;;;;12.63;62.33;97718.00;5073509;28;20219;-68
2022/05/29 06:58:50;;;;;;;2.77;1.23;;;;;;;12.37;62.22;97717.78;5073474;28;20231;-68
2022/05/29 07:07:06;;;;;;;3.10;1.20;;;;;;;12.33;62.55;97722.78;5067643;28;20202;-69
2022/05/29 07:09:36;;;;;;;3.20;1.43;;;;;;;12.25;62.63;97712.50;5073319;28;20251;-69
2022/05/29 07:12:25;;;;;;;3.87;1.50;;;;;;;12.37;64.33;97715.09;5073455;28;20210;-69
2022/05/29 07:15:00;;;;;;;3.50;1.40;;;;;;;12.48;62.89;97719.59;5073510;28;20197;-68
2022/05/29 07:17:27;;;;;;;4.70;1.33;;;;;;;12.39;62.01;97726.34;5073313;28;20195;-69
2022/05/29 07:19:54;;;;;;;2.73;1.50;;;;;;;12.62;63.30;97716.38;5073351;28;20299;-69
2022/05/29 07:22:20;;;;;;;2.07;1.30;;;;;;;12.73;60.67;97725.38;5073014;28;20220;-69
2022/05/29 07:24:47;;;;;;;3.17;1.43;;;;;;;12.57;62.54;97724.28;5073110;28;20216;-69
2022/05/29 07:27:14;;;;;;;3.63;1.83;;;;;;;12.57;64.09;97721.63;5073105;28;20204;-69
2022/05/29 07:29:40;;;;;;;5.87;1.57;;;;;;;12.79;62.71;97727.09;5072815;28;20220;-69
2022/05/29 07:32:07;;;;;;;4.30;1.60;;;;;;;12.64;62.64;97729.47;5072894;28;20208;-69
2022/05/29 07:34:34;;;;;;;4.27;1.77;;;;;;;12.61;61.30;97728.09;5072945;28;20231;-69
2022/05/29 07:37:05;;;;;;;4.40;1.93;;;;;;;12.55;61.84;97729.06;5073474;28;20211;-69
2022/05/29 07:39:37;;;;;;;4.87;1.77;;;;;;;12.79;61.63;97735.88;5073061;28;20228;-70
2022/05/29 07:44:49;;;;;;;4.10;1.70;;;;;;;12.62;60.38;97739.59;5072784;28;20173;-69
2022/05/29 07:47:15;;;;;;;3.67;1.30;;;;;;;12.74;60.83;97730.47;5073589;28;20216;-70
2022/05/29 07:49:42;;;;;;;2.47;1.40;;;;;;;12.58;58.91;97733.94;5072690;28;20216;-69
2022/05/29 07:52:08;;;;;;;3.57;1.60;;;;;;;13.03;60.43;97739.28;5073019;28;20208;-70
2022/05/29 07:54:35;;;;;;;2.63;1.40;;;;;;;12.83;57.35;97736.22;5073019;28;20206;-70
2022/05/29 07:57:01;;;;;;;5.63;1.60;;;;;;;13.35;59.32;97737.66;5072740;28;20220;-70
2022/05/29 07:59:27;;;;;;;5.43;1.60;;;;;;;13.17;59.36;97744.06;5072538;28;20229;-69
2022/05/29 08:01:54;;;;;;;2.53;1.73;;;;;;;12.87;60.92;97740.84;5072570;28;20202;-69
2022/05/29 08:04:20;;;;;;;4.53;1.90;;;;;;;12.62;62.10;97742.25;5072495;28;20233;-69
2022/05/29 08:06:46;;;;;;;4.23;1.70;;;;;;;12.89;60.91;97737.94;5072465;28;20220;-68
2022/05/29 08:09:13;;;;;;;2.77;1.43;;;;;;;12.90;60.44;97739.53;5072442;28;20225;-68
2022/05/29 08:11:40;;;;;;;6.13;1.60;;;;;;;12.59;60.64;97746.22;5072576;28;20217;-69
2022/05/29 08:14:06;;;;;;;4.33;1.40;;;;;;;12.67;59.65;97753.00;5073504;28;20204;-69
2022/05/29 08:16:33;;;;;;;2.83;1.73;;;;;;;12.42;60.87;97748.00;5076516;28;20208;-69
2022/05/29 08:18:59;;;;;;;3.50;1.67;;;;;;;12.75;60.28;97745.41;5077042;28;20224;-70
2022/05/29 08:21:26;;;;;;;4.77;1.80;;;;;;;12.69;60.99;97754.38;5076336;28;20326;-69
2022/05/29 08:32:02;;;;;;;3.00;1.57;;;;;;;13.73;58.12;97740.34;5076307;28;20233;-69
2022/05/29 08:34:29;;;;;;;4.90;1.67;;;;;;;13.66;61.78;97745.06;5075893;28;20561;-70
2022/05/29 08:36:56;;;;;;;5.27;2.00;;;;;;;13.92;60.09;97736.31;5075810;28;20689;-69
2022/05/29 08:39:24;;;;;;;5.50;1.53;;;;;;;14.09;58.19;97734.41;5075741;28;20242;-68
2022/05/29 08:41:52;;;;;;;7.27;2.10;;;;;;;14.46;56.09;97738.91;5076020;28;20211;-70
2022/05/29 08:44:22;;;;;;;3.30;1.77;;;;;;;13.94;56.69;97750.25;5075464;28;20692;-70
2022/05/29 08:47:00;;;;;;;5.40;1.73;;;;;;;13.96;56.84;97745.47;5075585;28;20204;-69
2022/05/29 08:49:30;;;;;;;4.93;1.87;;;;;;;13.56;57.97;97743.03;5059001;28;20246;-69
2022/05/29 08:52:04;;;;;;;3.73;1.60;;;;;;;13.08;58.83;97748.19;5075722;28;20206;-68
2022/05/29 08:54:49;;;;;;;5.80;2.00;;;;;;;12.83;60.93;97745.03;5075739;28;20212;-69
2022/05/29 08:57:37;;;;;;;5.97;1.87;;;;;;;12.79;61.56;97751.91;5075675;28;20216;-69
2022/05/29 09:00:10;;;;;;;5.40;1.80;;;;;;;12.73;62.81;97747.53;5075510;28;20201;-69
2022/05/29 09:02:56;;;;;;;5.50;2.10;;;;;;;12.72;63.83;97742.44;5075128;28;20197;-70
2022/05/29 09:05:39;;;;;;;3.40;1.90;;;;;;;12.64;62.69;97740.97;5075127;28;20556;-69
2022/05/29 09:08:15;;;;;;;3.23;1.90;;;;;;;12.65;63.96;97736.41;5075795;28;20544;-70
2022/05/29 09:10:44;;;;;;;5.13;1.87;;;;;;;12.69;63.93;97748.22;5075434;28;20192;-70
2022/05/29 09:13:43;;;;;;;4.40;1.93;;;;;;;12.68;63.66;97743.94;5075108;28;20572;-70
2022/05/29 09:16:19;;;;;;;5.60;2.03;;;;;;;12.58;67.00;97735.78;5075451;28;20192;-69
2022/05/29 09:19:09;;;;;;;5.43;2.13;;;;;;;12.33;70.96;97741.44;5074784;28;20225;-69
2022/05/29 09:21:55;;;;;;;4.40;1.90;;;;;;;12.16;72.46;97742.44;5074921;28;20636;-69
2022/05/29 09:24:39;;;;;;;8.30;2.50;;;;;;;12.27;76.70;97734.41;5074967;28;20212;-69
2022/05/29 09:27:06;;;;;;;5.80;2.30;;;;;;;12.38;74.45;97738.06;5074282;28;20184;-69
2022/05/29 09:29:36;;;;;;;6.23;2.47;;;;;;;12.34;71.48;97735.06;5075052;28;20588;-68
2022/05/29 09:32:04;;;;;;;5.23;2.30;;;;;;;12.20;76.46;97733.72;5074773;28;20610;-69
2022/05/29 09:34:30;;;;;;;7.73;2.70;;;;;;;12.28;72.58;97725.34;5075006;28;20232;-69
2022/05/29 09:37:20;;;;;;;5.83;2.30;;;;;;;12.11;76.19;97732.47;5075057;28;20571;-68
2022/05/29 09:39:53;;;;;;;5.00;2.30;;;;;;;12.42;79.14;97737.34;5075407;28;20189;-69
2022/05/29 09:42:26;;;;;;;7.47;2.13;;;;;;;12.56;71.37;97735.19;5056850;28;20525;-70
2022/05/29 09:45:24;;;;;;;7.60;2.50;;;;;;;12.85;76.22;97731.47;5074259;28;20208;-69
2022/05/29 09:50:44;;;;;;;4.67;2.17;;;;;;;13.16;70.17;97729.06;5074578;28;20171;-69
2022/05/29 09:53:13;;;;;;;6.33;2.90;;;;;;;13.45;69.71;97740.47;5074363;28;20208;-69
2022/05/29 09:55:49;;;;;;;5.30;2.07;;;;;;;13.59;65.76;97745.22;5074329;28;20206;-69
2022/05/29 09:58:23;;;;;;;6.13;1.77;;;;;;;13.57;61.39;97736.63;5074430;28;20230;-68
2022/05/29 10:01:03;;;;;;;4.67;1.83;;;;;;;13.86;62.84;97742.66;5056928;28;20189;-70
2022/05/29 10:03:39;;;;;;;5.83;2.00;;;;;;;13.95;63.64;97743.84;5074215;28;20219;-69
2022/05/29 10:06:16;;;;;;;4.13;1.67;;;;;;;14.15;62.13;97733.44;5074213;28;20269;-70
2022/05/29 10:08:44;;;;;;;4.40;1.60;;;;;;;14.67;57.17;97738.06;5073895;28;20222;-69
2022/05/29 10:11:29;;;;;;;3.80;1.60;;;;;;;14.67;56.76;97738.06;5074011;28;20690;-69
2022/05/29 10:13:56;;;;;;;6.10;1.90;;;;;;;14.80;53.55;97731.50;5074195;28;20184;-69
2022/05/29 10:16:40;;;;;;;3.53;1.30;;;;;;;13.87;58.11;97738.94;5074121;28;20216;-70
2022/05/29 10:19:34;;;;;;;4.80;2.03;;;;;;;13.55;59.82;97733.41;5074094;28;20233;-69
2022/05/29 10:22:02;;;;;;;4.57;1.60;;;;;;;13.65;57.83;97736.22;5073639;28;20202;-70
2022/05/29 10:24:37;;;;;;;4.53;1.63;;;;;;;13.86;59.50;97722.09;5073361;28;20250;-69
2022/05/29 10:27:13;;;;;;;5.67;2.03;;;;;;;14.15;59.50;97726.19;5073690;28;20226;-69
2022/05/29 10:29:41;;;;;;;5.10;1.80;;;;;;;13.82;57.63;97734.34;5073869;28;20202;-69
2022/05/29 10:32:21;;;;;;;6.90;1.73;;;;;;;14.05;57.54;97733.28;5073391;28;20745;-70
2022/05/29 10:34:49;;;;;;;7.90;2.10;;;;;;;14.05;58.89;97738.63;5073781;28;20199;-69
2022/05/29 10:37:36;;;;;;;3.60;1.87;;;;;;;13.51;56.89;97736.81;5055399;28;20206;-70
2022/05/29 10:40:20;;;;;;;6.60;2.13;;;;;;;13.11;59.11;97741.53;5072836;28;20245;-70
2022/05/29 10:42:53;;;;;;;4.13;1.70;;;;;;;13.03;64.76;97744.59;5073579;28;20270;-70
2022/05/29 10:45:24;;;;;;;4.47;2.20;;;;;;;12.91;66.47;97749.97;5073511;28;20292;-69
2022/05/29 10:48:21;;;;;;;4.10;2.17;;;;;;;13.27;66.63;97740.72;5073311;28;20257;-69
2022/05/29 10:51:19;;;;;;;4.37;1.70;;;;;;;12.46;67.88;97746.50;5030979;28;20208;-69
2022/05/29 10:54:02;;;;;;;4.90;1.87;;;;;;;12.64;67.61;97746.28;5074082;28;20191;-70
2022/05/29 10:56:53;;;;;;;3.50;1.83;;;;;;;12.65;66.41;97749.75;5073394;28;20195;-70
2022/05/29 10:59:42;;;;;;;4.77;1.80;;;;;;;12.37;66.78;97753.25;5056413;28;20232;-69
2022/05/29 11:05:04;;;;;;;4.43;1.83;;;;;;;12.29;66.17;97752.81;5073312;28;20216;-69
2022/05/29 11:08:07;;;;;;;4.50;1.60;;;;;;;12.29;66.95;97750.94;5072940;28;20589;-69
2022/05/29 11:10:58;;;;;;;3.00;1.40;;;;;;;12.40;65.21;97750.13;5073414;28;20196;-68
2022/05/29 11:14:00;;;;;;;4.07;1.67;;;;;;;12.63;63.91;97743.88;5073316;28;20185;-69
2022/05/29 11:16:51;;;;;;;2.57;1.40;;;;;;;12.57;61.54;97745.63;5018547;28;20683;-69
2022/05/29 11:19:35;;;;;;;4.33;1.40;;;;;;;12.82;61.97;97737.25;5073279;28;20235;-69
2022/05/29 11:22:01;;;;;;;3.30;1.30;;;;;;;13.06;58.42;97749.47;5073181;28;20200;-70
2022/05/29 11:24:48;;;;;;;2.93;1.37;;;;;;;12.27;58.86;97745.06;5072716;28;20220;-69
2022/05/29 11:27:41;;;;;;;3.07;1.20;;;;;;;13.18;60.78;97748.34;5072878;28;20742;-70
2022/05/29 11:30:22;;;;;;;4.60;1.57;;;;;;;13.00;57.40;97748.56;5073298;28;20183;-69
2022/05/29 11:33:22;;;;;;;2.20;1.10;;;;;;;12.58;56.18;97739.25;5056414;28;20186;-70
2022/05/29 11:36:21;;;;;;;3.40;1.20;;;;;;;12.65;57.77;97750.56;5018441;28;20197;-70
2022/05/29 11:39:09;;;;;;;2.53;1.30;;;;;;;12.73;57.61;97744.03;5073592;28;20235;-69
2022/05/29 11:41:45;;;;;;;1.83;1.33;;;;;;;12.47;58.86;97742.78;5073096;28;20244;-70
2022/05/29 11:44:15;;;;;;;1.63;1.33;;;;;;;12.49;57.96;97737.19;5072526;28;20250;-70
2022/05/29 11:52:38;;;;;;;2.10;1.10;;;;;;;12.65;56.43;97737.25;5077087;28;20243;-69
2022/05/29 11:55:13;;;;;;;2.07;1.00;;;;;;;12.78;55.54;97736.13;5065520;28;20209;-70
2022/05/29 11:57:42;;;;;;;3.87;1.40;;;;;;;13.56;56.89;97727.00;5076536;28;20224;-70
2022/05/29 12:00:11;;;;;;;2.37;1.20;;;;;;;13.78;56.08;97725.19;5076452;28;20206;-70
2022/05/29 12:02:48;;;;;;;3.17;1.50;;;;;;;13.69;59.92;97724.00;5076816;28;20206;-70
2022/05/29 12:05:33;;;;;;;1.80;1.20;;;;;;;13.46;58.27;97720.72;5042490;28;20210;-70
2022/05/29 12:08:15;;;;;;;3.57;1.40;;;;;;;13.19;57.78;97717.09;5076532;28;20317;-69
2022/05/29 12:10:53;;;;;;;3.40;1.47;;;;;;;13.27;59.60;97714.84;5076508;28;20281;-69
2022/05/29 12:13:24;;;;;;;3.30;1.63;;;;;;;13.18;58.52;97726.97;5075964;28;20552;-69
2022/05/29 12:15:58;;;;;;;2.93;1.30;;;;;;;12.86;63.96;97725.06;5076126;28;20628;-69
2022/05/29 12:18:32;;;;;;;3.70;1.53;;;;;;;13.15;67.92;97732.00;5076099;28;20224;-70
2022/05/29 12:21:02;;;;;;;3.60;1.77;;;;;;;13.00;65.26;97719.22;5076274;28;20190;-70
2022/05/29 12:23:43;;;;;;;5.47;1.90;;;;;;;12.75;68.50;97724.06;5076162;28;20256;-70
2022/05/29 12:26:17;;;;;;;3.30;1.80;;;;;;;12.56;68.58;97722.69;5075997;28;20189;-70
2022/05/29 12:28:52;;;;;;;4.53;1.83;;;;;;;12.88;68.70;97721.09;5075985;28;20229;-70
2022/05/29 12:31:27;;;;;;;4.20;1.67;;;;;;;12.82;66.73;97711.41;5076660;28;20214;-70
2022/05/29 12:33:55;;;;;;;3.93;1.67;;;;;;;13.00;68.70;97716.53;5075825;28;20190;-70
2022/05/29 12:36:58;;;;;;;3.23;1.47;;;;;;;13.01;63.75;97715.50;5075705;28;20204;-70
2022/05/29 12:39:43;;;;;;;4.63;1.77;;;;;;;12.62;65.55;97713.69;5075491;28;20227;-70